LFRO/LAI METAR and TAF weather

Enter ICAO airport designator
Station Type Date Time Source
LFRO METAR 2022/06/27 18:00 UTC NOAA

LFRO 271800Z AUTO 29008KT CAVOK 16/08 Q1021


Station Type Date Time Source
LFRO Decoded METAR 2022/06/27 18:00 UTC NOAA

Lannion / Servel, France (LFRO) 48-45N 003-28W
Jun 27, 2022 - 02:00 PM EDT / 2022.06.27 1800 UTC
Wind: from the WNW (290 degrees) at 9 MPH (8 KT):0
Visibility: greater than 7 mile(s):0
Temperature: 60 F (16 C)
Dew Point: 46 F (8 C)
Relative Humidity: 58%
Pressure (altimeter): 30.15 in. Hg (1021 hPa)
ob: LFRO 271800Z AUTO 29008KT CAVOK 16/08 Q1021
cycle: 18

Station Type Date Time Source
LFRO TAF 2019/05/15 19:06 UTC NOAA

TAF LFRO 151936Z 1519/1612 CNL

Example: see airport list